Time;durP1;ratioP1;P1;durP2;ratioP2;P2;SDS_P1;SDS_P2;PMS_P1;PMS_P2;Temp;Humidity;BMP_temperature;BMP_pressure;BME280_temperature;BME280_humidity;BME280_pressure;Samples;Min_cycle;Max_cycle;Signal;HPM_P1;HPM_P2
2022/10/08 00:01:43;;;;;;;8.02;1.85;;;;;;;8.05;100.00;100725.47;5216769;28;20067;-75
2022/10/08 00:04:14;;;;;;;6.00;1.77;;;;;;;8.11;100.00;100728.78;5201665;28;20039;-73
2022/10/08 00:06:44;;;;;;;10.30;1.88;;;;;;;8.08;100.00;100731.44;5237724;28;20212;-74
2022/10/08 00:09:14;;;;;;;5.88;2.05;;;;;;;8.04;100.00;100726.38;5241230;28;20020;-75
2022/10/08 00:11:44;;;;;;;8.57;1.63;;;;;;;7.98;100.00;100716.94;5223492;28;20612;-74
2022/10/08 00:14:15;;;;;;;3.50;1.23;;;;;;;7.89;100.00;100717.13;5242037;28;20025;-74
2022/10/08 00:16:46;;;;;;;5.38;1.50;;;;;;;7.98;100.00;100716.94;5241041;28;20640;-74
2022/10/08 00:19:16;;;;;;;5.30;1.77;;;;;;;8.11;100.00;100714.91;5223888;28;20111;-74
2022/10/08 00:21:49;;;;;;;5.68;1.80;;;;;;;8.01;100.00;100722.06;5240304;28;20027;-74
2022/10/08 00:24:20;;;;;;;5.70;1.48;;;;;;;8.04;100.00;100728.97;5241562;28;20033;-74
2022/10/08 00:26:51;;;;;;;4.20;1.65;;;;;;;8.06;100.00;100719.38;5214762;28;20028;-74
2022/10/08 00:29:21;;;;;;;5.40;1.50;;;;;;;8.12;100.00;100730.50;5214385;28;20020;-75
2022/10/08 00:31:52;;;;;;;9.48;1.83;;;;;;;8.09;100.00;100735.78;5240332;28;20586;-74
2022/10/08 00:34:22;;;;;;;4.13;1.25;;;;;;;8.07;100.00;100728.88;5223273;28;20032;-74
2022/10/08 00:36:54;;;;;;;6.53;1.45;;;;;;;7.96;100.00;100733.47;5212345;28;20021;-74
2022/10/08 00:39:24;;;;;;;3.67;1.30;;;;;;;8.11;100.00;100731.41;5238460;28;20358;-75
2022/10/08 00:41:55;;;;;;;6.20;1.55;;;;;;;8.19;100.00;100721.66;5240639;28;20093;-75
2022/10/08 00:44:58;;;;;;;4.15;1.50;;;;;;;8.13;100.00;100728.72;5240570;28;20025;-74
2022/10/08 00:47:31;;;;;;;5.60;1.58;;;;;;;7.91;100.00;100724.91;5237367;22;20111;-72
2022/10/08 00:50:07;;;;;;;9.15;1.73;;;;;;;8.04;100.00;100722.00;5239606;28;20508;-72
2022/10/08 00:52:52;;;;;;;5.90;1.67;;;;;;;8.06;100.00;100720.22;5241531;28;20027;-72
2022/10/08 00:55:26;;;;;;;6.47;1.55;;;;;;;8.23;100.00;100712.91;5240478;28;20416;-73
2022/10/08 00:58:04;;;;;;;5.45;1.55;;;;;;;8.11;100.00;100717.50;5243145;28;20048;-72
2022/10/08 01:00:34;;;;;;;4.20;1.70;;;;;;;8.17;100.00;100712.16;5262644;28;20074;-73
2022/10/08 01:03:05;;;;;;;6.78;1.38;;;;;;;8.07;100.00;100716.72;5266562;28;20048;-72
2022/10/08 01:05:57;;;;;;;4.50;1.70;;;;;;;7.99;100.00;100705.63;5266021;28;20024;-72
2022/10/08 01:08:27;;;;;;;5.07;1.80;;;;;;;8.09;100.00;100701.94;5263839;28;20020;-73
2022/10/08 01:11:17;;;;;;;6.50;1.60;;;;;;;8.00;100.00;100699.53;5266128;28;20482;-72
2022/10/08 01:14:13;;;;;;;5.45;1.58;;;;;;;7.83;100.00;100706.00;5263436;28;20016;-73
2022/10/08 01:16:57;;;;;;;13.02;1.98;;;;;;;7.68;100.00;100699.41;5264322;28;20052;-73
2022/10/08 01:19:39;;;;;;;3.95;1.63;;;;;;;7.82;100.00;100702.56;5265482;28;20040;-72
2022/10/08 01:22:35;;;;;;;6.22;1.70;;;;;;;7.64;100.00;100695.16;5265691;28;20024;-73
2022/10/08 01:25:32;;;;;;;3.80;1.58;;;;;;;7.76;100.00;100700.09;5265684;28;20020;-73
2022/10/08 01:28:19;;;;;;;5.45;1.38;;;;;;;7.57;100.00;100698.81;5265324;28;20389;-72
2022/10/08 01:31:03;;;;;;;7.18;1.60;;;;;;;7.58;100.00;100699.63;5245406;28;20568;-73
2022/10/08 01:33:44;;;;;;;4.00;1.58;;;;;;;7.44;100.00;100701.66;5266037;28;20397;-73
2022/10/08 01:36:17;;;;;;;7.28;1.60;;;;;;;7.49;100.00;100694.66;5264533;28;20023;-72
2022/10/08 01:38:53;;;;;;;4.57;1.38;;;;;;;7.48;100.00;100704.19;5265757;28;20024;-72
2022/10/08 01:41:25;;;;;;;8.20;1.92;;;;;;;7.43;100.00;100700.84;5265924;28;20038;-73
2022/10/08 01:44:03;;;;;;;4.78;1.67;;;;;;;7.65;100.00;100703.81;5265726;28;20023;-73
2022/10/08 01:46:37;;;;;;;4.28;1.38;;;;;;;7.76;100.00;100704.44;5265141;28;20436;-73
2022/10/08 01:49:16;;;;;;;3.33;1.50;;;;;;;7.59;100.00;100698.75;5265507;28;20020;-73
2022/10/08 01:51:51;;;;;;;8.95;1.77;;;;;;;7.65;100.00;100699.47;5266077;28;20024;-72
2022/10/08 01:54:24;;;;;;;;;;;;;;;7.67;100.00;100694.25;5266414;28;20028;-73
2022/10/08 01:56:57;;;;;;;7.60;2.00;;;;;;;7.68;100.00;100686.41;5264795;28;19919;-73
2022/10/08 01:59:38;;;;;;;6.55;1.90;;;;;;;7.73;100.00;100689.75;5265458;28;20081;-73
2022/10/08 02:02:20;;;;;;;6.78;1.90;;;;;;;7.88;100.00;100688.56;5265507;28;20020;-73
2022/10/08 02:04:53;;;;;;;6.93;1.92;;;;;;;7.90;100.00;100679.81;5262691;28;20024;-73
2022/10/08 02:07:29;;;;;;;6.10;2.30;;;;;;;8.12;100.00;100681.03;5264056;28;20078;-73
2022/10/08 02:10:12;;;;;;;9.52;2.53;;;;;;;8.44;100.00;100675.06;5264663;28;20394;-73
2022/10/08 02:12:44;;;;;;;7.97;2.55;;;;;;;8.64;100.00;100667.59;5264396;28;20111;-73
2022/10/08 02:15:53;;;;;;;10.52;2.50;;;;;;;8.92;100.00;100671.19;5264461;28;20028;-73
2022/10/08 02:18:38;;;;;;;13.10;2.70;;;;;;;9.20;100.00;100663.41;5262374;28;20028;-73
2022/10/08 02:21:18;;;;;;;8.98;2.50;;;;;;;9.31;100.00;100671.75;5264999;28;20024;-73
2022/10/08 02:23:59;;;;;;;11.10;2.55;;;;;;;9.41;100.00;100680.16;5261022;28;20036;-73
2022/10/08 02:26:39;;;;;;;12.27;2.65;;;;;;;9.51;100.00;100676.41;5264514;28;20414;-73
2022/10/08 02:29:29;;;;;;;7.18;2.38;;;;;;;9.57;100.00;100681.44;5264737;28;20031;-73
2022/10/08 02:32:32;;;;;;;9.55;2.72;;;;;;;9.59;100.00;100674.41;5245085;28;20118;-73
2022/10/08 02:35:12;;;;;;;11.70;2.83;;;;;;;9.60;100.00;100673.50;5257230;28;20461;-73
2022/10/08 02:37:49;;;;;;;6.45;2.08;;;;;;;9.67;100.00;100667.22;5264313;28;20028;-72
2022/10/08 02:40:20;;;;;;;7.07;2.00;;;;;;;9.65;100.00;100671.63;5264493;28;20028;-72
2022/10/08 02:42:55;;;;;;;8.25;2.17;;;;;;;9.64;100.00;100668.16;5264896;28;20028;-72
2022/10/08 02:45:35;;;;;;;9.27;2.10;;;;;;;9.63;100.00;100681.25;5246547;28;20027;-72
2022/10/08 02:48:13;;;;;;;10.43;2.63;;;;;;;9.63;100.00;100681.25;5264433;28;20028;-72
2022/10/08 02:50:46;;;;;;;9.43;2.47;;;;;;;9.69;100.00;100674.06;5264332;28;20024;-73
2022/10/08 02:53:18;;;;;;;8.15;2.05;;;;;;;9.71;100.00;100674.91;5263710;28;20186;-73
2022/10/08 02:56:24;;;;;;;9.73;2.30;;;;;;;9.78;100.00;100668.59;5264724;28;20028;-73
2022/10/08 02:58:55;;;;;;;8.73;2.15;;;;;;;9.78;100.00;100660.75;5260023;28;20210;-73
2022/10/08 03:01:35;;;;;;;9.35;2.42;;;;;;;9.75;100.00;100660.88;5264114;28;20046;-73
2022/10/08 03:04:12;;;;;;;9.93;2.30;;;;;;;9.76;100.00;100656.47;5264716;28;20032;-73
2022/10/08 03:06:43;;;;;;;10.32;1.90;;;;;;;9.81;100.00;100659.81;5259681;28;20027;-73
2022/10/08 03:09:16;;;;;;;12.57;2.42;;;;;;;9.79;100.00;100661.63;5263932;28;20026;-73
2022/10/08 03:11:47;;;;;;;7.00;1.90;;;;;;;9.82;100.00;100661.53;5263643;28;20474;-73
2022/10/08 03:14:19;;;;;;;12.13;2.50;;;;;;;9.82;100.00;100659.75;5264079;28;20066;-73
2022/10/08 03:16:50;;;;;;;10.23;2.33;;;;;;;9.83;100.00;100658.84;5262205;28;20059;-73
2022/10/08 03:19:20;;;;;;;8.13;2.20;;;;;;;9.89;100.00;100655.19;5263489;28;20028;-73
2022/10/08 03:21:53;;;;;;;9.05;2.20;;;;;;;9.91;100.00;100656.88;5264135;28;20554;-72
2022/10/08 03:24:24;;;;;;;7.85;2.35;;;;;;;9.95;100.00;100657.59;5262750;28;20074;-73
2022/10/08 03:26:54;;;;;;;11.80;2.53;;;;;;;9.91;100.00;100666.44;5263439;28;20024;-73
2022/10/08 03:29:24;;;;;;;9.52;2.33;;;;;;;9.90;100.00;100662.13;5263493;28;20102;-73
2022/10/08 03:31:55;;;;;;;10.80;2.83;;;;;;;9.91;100.00;100663.84;5262467;28;20036;-73
2022/10/08 03:34:25;;;;;;;9.75;2.40;;;;;;;9.95;100.00;100668.06;5263117;28;20044;-73
2022/10/08 03:36:56;;;;;;;8.15;1.92;;;;;;;9.89;100.00;100665.66;5262855;28;20028;-72
2022/10/08 03:39:26;;;;;;;11.35;2.17;;;;;;;9.84;100.00;100665.78;5263571;28;20456;-72
2022/10/08 03:41:56;;;;;;;8.07;2.25;;;;;;;9.85;100.00;100661.44;5264102;28;20039;-73
2022/10/08 03:44:26;;;;;;;11.13;2.35;;;;;;;9.83;100.00;100658.00;5263411;28;20481;-73
2022/10/08 03:46:57;;;;;;;12.25;2.00;;;;;;;9.81;100.00;100654.59;5263131;28;20034;-73
2022/10/08 03:49:27;;;;;;;8.43;2.15;;;;;;;9.80;100.00;100658.13;5262438;28;20481;-73
2022/10/08 03:51:57;;;;;;;8.52;2.13;;;;;;;9.83;100.00;100652.78;5262060;28;20032;-73
2022/10/08 03:54:28;;;;;;;7.95;2.22;;;;;;;9.79;100.00;100657.25;5263605;28;20036;-73
2022/10/08 03:56:58;;;;;;;8.68;2.05;;;;;;;9.76;100.00;100651.25;5262960;28;20016;-73
2022/10/08 03:59:29;;;;;;;10.50;2.30;;;;;;;9.75;100.00;100655.66;5263161;28;20059;-73
2022/10/08 04:01:59;;;;;;;8.75;1.75;;;;;;;9.77;100.00;100645.13;5262860;28;20020;-72
2022/10/08 04:04:29;;;;;;;8.38;2.15;;;;;;;9.77;100.00;100652.97;5263215;28;20047;-73
2022/10/08 04:06:59;;;;;;;11.73;2.00;;;;;;;9.75;100.00;100649.56;5262327;28;20016;-73
2022/10/08 04:09:30;;;;;;;8.20;1.92;;;;;;;9.85;100.00;100645.78;5263060;28;20035;-73
2022/10/08 04:12:00;;;;;;;8.60;2.22;;;;;;;9.92;100.00;100645.53;5263049;28;20036;-73
2022/10/08 04:14:30;;;;;;;13.35;2.20;;;;;;;9.91;100.00;100642.94;5263643;28;20028;-73
2022/10/08 04:17:01;;;;;;;7.22;1.90;;;;;;;9.91;100.00;100635.13;5261723;28;20114;-73
2022/10/08 04:19:31;;;;;;;7.82;1.92;;;;;;;9.86;100.00;100637.03;5262307;28;20024;-73
2022/10/08 04:22:01;;;;;;;11.52;2.10;;;;;;;9.82;100.00;100645.88;5262754;28;20298;-73
2022/10/08 04:24:32;;;;;;;12.07;2.42;;;;;;;9.90;100.00;100642.13;5261797;28;20035;-73
2022/10/08 04:27:02;;;;;;;8.60;2.00;;;;;;;9.88;100.00;100649.16;5262342;28;20422;-73
2022/10/08 04:29:32;;;;;;;9.50;2.10;;;;;;;9.91;100.00;100643.81;5262851;28;20051;-73
2022/10/08 04:32:02;;;;;;;11.02;2.15;;;;;;;9.82;100.00;100651.09;5243598;28;20468;-73
2022/10/08 04:34:33;;;;;;;11.02;2.30;;;;;;;9.83;100.00;100647.56;5263256;28;20023;-72
2022/10/08 04:37:03;;;;;;;9.25;1.83;;;;;;;9.92;100.00;100642.06;5242451;28;20473;-73
2022/10/08 04:39:33;;;;;;;10.27;2.20;;;;;;;9.91;100.00;100650.78;5262535;28;20099;-73
2022/10/08 04:42:04;;;;;;;9.95;1.98;;;;;;;9.99;100.00;100656.63;5244341;28;20481;-73
2022/10/08 04:44:34;;;;;;;10.80;2.30;;;;;;;10.13;100.00;100668.38;5262423;28;20034;-73
2022/10/08 04:47:04;;;;;;;11.00;1.98;;;;;;;10.18;100.00;100660.38;5261884;28;20024;-73
2022/10/08 04:49:35;;;;;;;10.07;1.95;;;;;;;10.27;100.00;100663.56;5262874;28;20059;-73
2022/10/08 04:52:05;;;;;;;10.93;2.33;;;;;;;10.32;100.00;100652.97;5263146;28;20031;-73
2022/10/08 04:54:36;;;;;;;7.55;1.83;;;;;;;10.36;100.00;100655.41;5262607;28;20341;-74
2022/10/08 04:57:06;;;;;;;8.68;1.77;;;;;;;10.47;100.00;100662.88;5261970;28;20115;-73
2022/10/08 04:59:36;;;;;;;7.25;1.55;;;;;;;10.48;100.00;100660.22;5262130;28;20036;-73
2022/10/08 05:02:07;;;;;;;7.47;1.60;;;;;;;10.54;100.00;100659.16;5262409;28;20024;-73
2022/10/08 05:04:37;;;;;;;14.18;2.47;;;;;;;10.51;100.00;100661.88;5262402;28;20027;-73
2022/10/08 05:07:07;;;;;;;12.10;2.08;;;;;;;10.52;100.00;100674.03;5261854;28;20104;-73
2022/10/08 05:09:37;;;;;;;9.10;2.15;;;;;;;10.52;100.00;100671.44;5262325;28;20031;-73
2022/10/08 05:12:08;;;;;;;9.50;2.20;;;;;;;10.53;100.00;100663.53;5262513;28;20110;-73
2022/10/08 05:14:38;;;;;;;8.45;1.73;;;;;;;10.53;100.00;100673.97;5262261;28;20031;-73
2022/10/08 05:17:08;;;;;;;14.60;1.85;;;;;;;10.67;100.00;100670.91;5261023;28;20039;-73
2022/10/08 05:19:38;;;;;;;10.77;2.10;;;;;;;10.72;100.00;100672.44;5261743;28;20024;-73
2022/10/08 05:22:09;;;;;;;8.55;1.85;;;;;;;10.88;100.00;100676.22;5262297;28;20036;-73
2022/10/08 05:24:39;;;;;;;8.45;2.10;;;;;;;10.96;100.00;100670.72;5261925;28;20369;-74
2022/10/08 05:27:09;;;;;;;11.43;2.25;;;;;;;11.03;100.00;100668.72;5261122;28;20032;-73
2022/10/08 05:29:40;;;;;;;12.25;1.88;;;;;;;11.11;100.00;100677.13;5244119;28;20030;-73
2022/10/08 05:32:10;;;;;;;9.48;1.90;;;;;;;11.25;100.00;100685.31;5261893;28;20070;-73
2022/10/08 05:34:40;;;;;;;12.88;2.28;;;;;;;11.23;100.00;100683.66;5262178;28;20326;-74
2022/10/08 05:37:10;;;;;;;9.95;2.00;;;;;;;11.32;100.00;100685.97;5261085;28;20036;-73
2022/10/08 05:39:41;;;;;;;13.50;2.33;;;;;;;11.34;100.00;100679.78;5257861;28;20034;-73
2022/10/08 05:42:11;;;;;;;11.15;1.80;;;;;;;11.34;100.00;100685.00;5261952;28;20097;-73
2022/10/08 05:44:41;;;;;;;11.25;2.05;;;;;;;11.42;100.00;100682.09;5260954;28;20055;-73
2022/10/08 05:47:11;;;;;;;11.23;2.33;;;;;;;11.44;100.00;100688.97;5261492;28;20035;-72
2022/10/08 05:49:42;;;;;;;12.38;2.10;;;;;;;11.52;100.00;100681.69;5266061;28;20020;-73
2022/10/08 05:52:12;;;;;;;10.77;2.15;;;;;;;11.57;100.00;100677.16;5264760;28;20020;-73
2022/10/08 05:54:42;;;;;;;11.93;2.35;;;;;;;11.60;100.00;100687.50;5265335;28;20039;-74
2022/10/08 05:57:12;;;;;;;15.00;2.58;;;;;;;11.63;100.00;100694.41;5264483;28;20962;-73
2022/10/08 05:59:43;;;;;;;13.13;1.98;;;;;;;11.66;100.00;100699.53;5265503;28;20023;-74
2022/10/08 06:02:13;;;;;;;13.07;2.55;;;;;;;11.78;100.00;100702.53;5265334;28;20512;-74
2022/10/08 06:04:43;;;;;;;13.48;2.60;;;;;;;11.84;100.00;100694.44;5263947;28;20307;-73
2022/10/08 06:07:14;;;;;;;12.90;2.35;;;;;;;11.86;100.00;100708.34;5264615;28;20035;-73
2022/10/08 06:09:44;;;;;;;13.02;2.17;;;;;;;11.92;100.00;100702.00;5264746;28;20039;-73
2022/10/08 06:12:14;;;;;;;10.38;2.47;;;;;;;12.08;100.00;100696.09;5265393;28;20023;-73
2022/10/08 06:14:44;;;;;;;7.75;2.42;;;;;;;12.16;100.00;100701.88;5265515;28;20484;-74
2022/10/08 06:17:15;;;;;;;9.13;2.50;;;;;;;12.27;100.00;100696.22;5262939;28;20284;-74
2022/10/08 06:19:45;;;;;;;11.55;2.50;;;;;;;12.24;100.00;100702.44;5265176;28;20038;-73
2022/10/08 06:22:15;;;;;;;10.88;2.50;;;;;;;12.34;100.00;100701.16;5265349;28;20385;-73
2022/10/08 06:24:45;;;;;;;11.50;2.45;;;;;;;12.29;100.00;100704.88;5265376;28;20028;-74
2022/10/08 06:27:16;;;;;;;10.20;2.55;;;;;;;12.43;100.00;100713.88;5264933;28;20034;-74
2022/10/08 06:29:46;;;;;;;10.80;2.33;;;;;;;12.37;100.00;100722.00;5264926;28;20050;-74
2022/10/08 06:32:16;;;;;;;11.30;2.60;;;;;;;12.38;100.00;100728.06;5264150;28;20069;-73
2022/10/08 06:34:46;;;;;;;13.55;2.80;;;;;;;12.34;100.00;100727.38;5264766;28;20278;-74
2022/10/08 06:37:17;;;;;;;13.65;2.72;;;;;;;12.32;100.00;100739.66;5264036;28;20073;-73
2022/10/08 06:39:47;;;;;;;14.95;2.72;;;;;;;12.26;100.00;100732.03;5265109;28;20385;-74
2022/10/08 06:42:17;;;;;;;17.20;3.25;;;;;;;12.17;100.00;100740.28;5262868;28;20028;-73
2022/10/08 06:44:48;;;;;;;13.60;2.72;;;;;;;12.19;100.00;100738.47;5264697;28;20056;-73
2022/10/08 06:47:18;;;;;;;11.02;2.65;;;;;;;12.15;100.00;100747.31;5264347;28;20038;-73
2022/10/08 06:49:48;;;;;;;15.68;3.15;;;;;;;12.14;100.00;100750.84;5265014;28;20016;-74
2022/10/08 06:52:18;;;;;;;11.95;3.00;;;;;;;12.13;100.00;100749.16;5264328;28;20043;-74
2022/10/08 06:54:49;;;;;;;11.77;3.33;;;;;;;12.04;100.00;100752.16;5264390;28;20322;-74
2022/10/08 06:57:19;;;;;;;14.30;2.92;;;;;;;12.05;100.00;100756.47;5246026;28;20055;-73
2022/10/08 06:59:53;;;;;;;10.57;2.63;;;;;;;12.03;100.00;100758.31;5261904;28;20039;-73
2022/10/08 07:02:23;;;;;;;14.00;2.90;;;;;;;11.98;100.00;100760.22;5263671;28;20032;-73
2022/10/08 07:04:54;;;;;;;9.25;2.50;;;;;;;11.86;100.00;100765.94;5263148;28;20031;-73
2022/10/08 07:07:24;;;;;;;11.90;3.15;;;;;;;11.77;100.00;100761.03;5262568;28;20054;-73
2022/10/08 07:09:54;;;;;;;9.75;2.67;;;;;;;11.86;100.00;100765.94;5263789;28;20027;-73
2022/10/08 07:12:25;;;;;;;9.73;2.70;;;;;;;11.80;100.00;100766.16;5263483;28;20081;-74
2022/10/08 07:14:55;;;;;;;9.48;2.70;;;;;;;11.86;100.00;100770.31;5263721;28;20389;-74
2022/10/08 07:17:27;;;;;;;9.45;2.60;;;;;;;11.83;100.00;100776.53;5262411;28;20028;-73
2022/10/08 07:19:57;;;;;;;10.65;2.70;;;;;;;11.88;100.00;100777.22;5261106;28;20024;-74
2022/10/08 07:22:28;;;;;;;12.38;3.13;;;;;;;11.80;100.00;100778.41;5263800;28;20034;-74
2022/10/08 07:25:00;;;;;;;10.52;2.92;;;;;;;11.79;100.00;100785.41;5263908;28;20035;-73
2022/10/08 07:27:30;;;;;;;16.23;3.38;;;;;;;11.73;100.00;100769.94;5263320;28;20424;-73
2022/10/08 07:30:00;;;;;;;12.18;3.13;;;;;;;11.74;100.00;100749.81;5263424;28;20036;-73
2022/10/08 07:32:31;;;;;;;15.00;3.15;;;;;;;11.77;100.00;100753.19;5263778;28;20039;-74
2022/10/08 07:35:01;;;;;;;11.05;3.00;;;;;;;11.69;100.00;100759.63;5263526;28;20074;-74
2022/10/08 07:37:31;;;;;;;13.00;3.20;;;;;;;11.75;100.00;100772.50;5262971;28;20039;-74
2022/10/08 07:40:02;;;;;;;11.73;3.40;;;;;;;11.92;100.00;100780.59;5262449;28;20027;-72
2022/10/08 07:42:32;;;;;;;12.23;3.10;;;;;;;11.97;100.00;100783.88;5262121;28;20024;-73
2022/10/08 07:45:03;;;;;;;15.65;3.70;;;;;;;11.96;100.00;100787.41;5261571;28;20024;-73
2022/10/08 07:47:33;;;;;;;14.35;3.22;;;;;;;11.99;100.00;100772.41;5261543;28;20347;-73
2022/10/08 07:50:04;;;;;;;13.15;3.10;;;;;;;12.10;100.00;100774.63;5261723;28;20599;-73
2022/10/08 07:52:34;;;;;;;12.88;3.13;;;;;;;12.18;100.00;100783.03;5262192;28;20049;-74
2022/10/08 07:55:04;;;;;;;13.40;2.95;;;;;;;12.25;100.00;100794.97;5262757;28;20023;-74
2022/10/08 07:57:35;;;;;;;10.25;2.83;;;;;;;12.34;100.00;100798.13;5262707;28;20035;-74
2022/10/08 08:00:06;;;;;;;12.82;2.80;;;;;;;12.33;100.00;100799.00;5263244;28;20107;-74
2022/10/08 08:02:36;;;;;;;16.30;3.22;;;;;;;12.31;100.00;100808.72;5263259;28;20024;-74
2022/10/08 08:05:07;;;;;;;6.15;2.38;;;;;;;12.39;100.00;100819.75;5247502;28;20039;-73
2022/10/08 08:07:37;;;;;;;8.48;2.08;;;;;;;12.47;100.00;100817.69;5262270;28;20101;-73
2022/10/08 08:10:07;;;;;;;7.57;2.47;;;;;;;12.61;100.00;100818.00;5262127;28;20028;-74
2022/10/08 08:12:37;;;;;;;9.77;2.70;;;;;;;12.56;100.00;100821.72;5263338;28;20059;-73
2022/10/08 08:15:08;;;;;;;13.30;2.72;;;;;;;12.60;100.00;100837.25;5262978;28;20463;-74
2022/10/08 08:17:39;;;;;;;8.80;2.90;;;;;;;12.74;100.00;100840.19;5262597;28;20022;-73
2022/10/08 08:20:09;;;;;;;6.93;2.35;;;;;;;12.72;100.00;100847.28;5261760;28;20535;-74
2022/10/08 08:22:39;;;;;;;6.13;2.33;;;;;;;12.71;100.00;100852.56;5262343;28;20561;-73
2022/10/08 08:25:09;;;;;;;8.48;2.10;;;;;;;12.78;100.00;100849.66;5262591;28;20377;-73
2022/10/08 08:27:40;;;;;;;10.73;2.70;;;;;;;12.83;100.00;100852.94;5261477;28;20112;-73
2022/10/08 08:30:11;;;;;;;9.82;2.95;;;;;;;12.80;100.00;100858.31;5262192;28;20469;-73
2022/10/08 08:32:42;;;;;;;6.93;2.17;;;;;;;12.85;100.00;100858.97;5259125;28;20024;-73
2022/10/08 08:35:12;;;;;;;11.93;2.30;;;;;;;12.85;100.00;100872.06;5262715;28;20031;-73
2022/10/08 08:37:42;;;;;;;12.68;2.28;;;;;;;12.91;100.00;100866.59;5262488;28;20042;-73
2022/10/08 08:40:13;;;;;;;8.52;2.15;;;;;;;12.85;100.00;100866.81;5262745;28;20073;-73
2022/10/08 08:42:54;;;;;;;6.47;1.80;;;;;;;12.89;100.00;100871.06;5262838;28;20033;-74
2022/10/08 08:45:28;;;;;;;8.38;2.55;;;;;;;12.89;100.00;100873.69;5261997;28;20059;-74
2022/10/08 08:48:05;;;;;;;9.85;3.00;;;;;;;12.96;100.00;100880.41;5261037;28;20020;-73
2022/10/08 08:50:39;;;;;;;12.15;2.45;;;;;;;12.98;100.00;100872.50;5244156;28;20035;-74
2022/10/08 08:53:10;;;;;;;7.60;2.17;;;;;;;12.99;100.00;100896.03;5262429;28;20080;-73
2022/10/08 08:55:50;;;;;;;8.30;2.40;;;;;;;13.21;100.00;100883.75;5239805;28;20044;-73
2022/10/08 08:58:41;;;;;;;11.43;2.78;;;;;;;13.06;100.00;100897.50;5259061;28;20405;-74
2022/10/08 09:01:29;;;;;;;9.82;2.45;;;;;;;13.10;100.00;100899.09;5262384;28;20057;-73
2022/10/08 09:04:20;;;;;;;5.45;2.30;;;;;;;13.18;100.00;100897.00;5262030;28;20481;-74
2022/10/08 09:06:51;;;;;;;10.23;2.55;;;;;;;13.16;100.00;100897.06;5259197;28;20539;-73
2022/10/08 09:09:26;;;;;;;5.00;1.77;;;;;;;13.31;100.00;100904.31;5244007;28;20420;-73
2022/10/08 09:11:57;;;;;;;9.18;2.30;;;;;;;13.38;100.00;100899.66;5259178;28;20024;-73
2022/10/08 09:14:41;;;;;;;6.30;2.00;;;;;;;13.37;100.00;100908.47;5262124;28;20631;-73
2022/10/08 09:17:17;;;;;;;7.85;2.13;;;;;;;13.36;100.00;100906.72;5262126;28;20039;-73
2022/10/08 09:19:48;;;;;;;9.40;2.47;;;;;;;13.49;100.00;100902.69;5262483;28;20449;-73
2022/10/08 09:22:22;;;;;;;6.10;1.90;;;;;;;13.61;100.00;100913.50;5262635;28;20095;-73
2022/10/08 09:24:57;;;;;;;8.07;2.10;;;;;;;13.66;100.00;100911.56;5247617;28;20129;-73
2022/10/08 09:27:43;;;;;;;5.72;1.98;;;;;;;13.60;100.00;100921.47;5265351;28;20051;-73
2022/10/08 09:30:39;;;;;;;9.40;2.03;;;;;;;13.68;100.00;100928.09;5266273;28;20469;-73
2022/10/08 09:33:12;;;;;;;6.15;2.08;;;;;;;13.66;100.00;100936.97;5266235;28;20075;-73
2022/10/08 09:35:46;;;;;;;7.32;2.13;;;;;;;13.73;100.00;100933.19;5262610;28;20039;-73
2022/10/08 09:38:25;;;;;;;4.93;1.77;;;;;;;13.71;100.00;100935.03;5266031;28;20035;-73
2022/10/08 09:40:59;;;;;;;7.53;2.25;;;;;;;13.92;100.00;100934.94;5266474;28;20555;-73
2022/10/08 09:43:32;;;;;;;8.85;2.20;;;;;;;14.55;100.00;100931.22;5265748;28;20043;-74
2022/10/08 09:46:10;;;;;;;5.40;2.08;;;;;;;14.76;100.00;100928.47;5247486;28;20024;-73
2022/10/08 09:48:44;;;;;;;6.65;1.80;;;;;;;15.05;99.99;100928.78;5265401;28;20053;-74
2022/10/08 09:51:16;;;;;;;6.70;2.25;;;;;;;15.11;98.19;100936.41;5265011;28;20557;-74
2022/10/08 09:53:57;;;;;;;7.00;2.22;;;;;;;15.18;97.75;100937.78;5266227;28;20366;-73
2022/10/08 09:56:29;;;;;;;6.57;2.00;;;;;;;15.22;97.07;100928.81;5265316;28;20444;-72
2022/10/08 09:59:02;;;;;;;7.60;2.03;;;;;;;15.32;96.58;100931.91;5265595;28;20046;-73
2022/10/08 10:01:33;;;;;;;6.68;2.10;;;;;;;15.34;95.31;100941.41;5264409;28;20020;-72
2022/10/08 10:04:05;;;;;;;6.15;1.77;;;;;;;15.21;94.75;100940.28;5263959;28;20039;-74
2022/10/08 10:06:39;;;;;;;5.43;1.70;;;;;;;15.17;93.42;100943.16;5263402;28;20401;-72
2022/10/08 10:09:37;;;;;;;6.35;1.90;;;;;;;15.46;93.42;100943.47;5264021;28;20028;-73
2022/10/08 10:12:26;;;;;;;6.13;1.70;;;;;;;15.54;91.47;100957.09;5262722;28;20032;-73
2022/10/08 10:15:18;;;;;;;5.95;1.60;;;;;;;15.31;92.05;100961.78;5261506;28;20539;-73
2022/10/08 10:17:56;;;;;;;8.20;1.70;;;;;;;15.09;92.14;100961.94;5259632;28;20062;-73
2022/10/08 10:20:38;;;;;;;7.70;1.88;;;;;;;14.90;93.27;100953.22;5262255;28;20032;-74
2022/10/08 10:23:24;;;;;;;5.20;2.15;;;;;;;14.92;94.37;100956.63;5263662;28;20032;-73
2022/10/08 10:26:03;;;;;;;7.57;2.17;;;;;;;15.00;95.03;100957.09;5261396;28;20019;-73
2022/10/08 10:28:56;;;;;;;6.43;1.98;;;;;;;15.12;94.41;100951.25;5262836;28;20028;-73
2022/10/08 10:31:38;;;;;;;7.43;1.85;;;;;;;14.98;94.45;100947.59;5263697;28;20499;-73
2022/10/08 10:34:14;;;;;;;6.85;2.05;;;;;;;14.82;94.54;100955.34;5262693;28;20489;-73
2022/10/08 10:36:50;;;;;;;5.90;2.03;;;;;;;14.93;94.48;100954.84;5262608;28;20046;-73
2022/10/08 10:39:31;;;;;;;7.88;2.67;;;;;;;14.90;94.59;100952.34;5262708;28;20047;-73
2022/10/08 10:42:19;;;;;;;6.05;2.00;;;;;;;14.87;94.78;100949.88;5261097;28;20043;-73
2022/10/08 10:44:54;;;;;;;6.57;2.25;;;;;;;14.92;95.51;100948.72;5260903;28;20032;-73
2022/10/08 10:47:29;;;;;;;5.73;1.63;;;;;;;15.03;96.10;100951.69;5260957;28;20071;-73
2022/10/08 10:50:01;;;;;;;10.70;1.98;;;;;;;15.05;95.12;100946.38;5262986;28;20297;-73
2022/10/08 10:52:54;;;;;;;7.20;1.92;;;;;;;15.38;94.76;100952.66;5243892;28;20067;-74
2022/10/08 10:56:01;;;;;;;7.38;2.35;;;;;;;15.32;92.73;100951.19;5262094;28;20028;-73
2022/10/08 10:58:39;;;;;;;;;;;;;;;15.31;93.05;100945.97;5251520;28;20032;-73
2022/10/08 11:01:42;;;;;;;8.43;2.08;;;;;;;15.32;92.71;100947.72;5261493;28;19912;-73
2022/10/08 11:05:04;;;;;;;7.20;2.05;;;;;;;15.64;92.80;100944.31;5243128;28;20036;-73
2022/10/08 11:08:07;;;;;;;10.50;2.10;;;;;;;15.93;90.21;100944.56;5214338;28;20047;-72
2022/10/08 11:10:46;;;;;;;6.30;1.90;;;;;;;15.80;88.69;100930.28;5261403;28;20161;-73
2022/10/08 11:13:38;;;;;;;7.30;2.20;;;;;;;15.40;88.26;100941.09;5258579;28;20034;-73
2022/10/08 11:16:17;;;;;;;5.63;1.85;;;;;;;15.56;89.06;100933.31;5260058;28;20039;-73
2022/10/08 11:18:57;;;;;;;8.95;2.20;;;;;;;15.54;88.34;100933.38;5259104;28;20047;-73
2022/10/08 11:21:52;;;;;;;8.32;1.95;;;;;;;15.49;88.74;100935.41;5253133;28;20028;-73
2022/10/08 11:24:41;;;;;;;8.77;2.13;;;;;;;15.72;89.55;100935.09;5257718;28;20040;-73
2022/10/08 11:27:32;;;;;;;7.80;1.83;;;;;;;15.84;87.66;100926.56;5258505;28;20081;-73
2022/10/08 11:30:03;;;;;;;9.32;2.10;;;;;;;15.88;88.43;100928.09;5241229;28;20063;-73
2022/10/08 11:32:33;;;;;;;7.47;2.10;;;;;;;15.97;86.56;100917.09;5259618;28;20048;-73
2022/10/08 11:35:07;;;;;;;11.73;2.40;;;;;;;15.97;86.99;100927.66;5260046;28;20119;-74
2022/10/08 11:37:46;;;;;;;5.55;1.67;;;;;;;15.93;85.66;100918.19;5259507;28;20497;-73
2022/10/08 11:40:29;;;;;;;9.10;1.92;;;;;;;15.92;87.05;100923.53;5260464;28;20113;-72
2022/10/08 11:43:09;;;;;;;9.07;2.00;;;;;;;15.98;86.04;100918.78;5259377;28;20035;-73
2022/10/08 11:45:44;;;;;;;10.23;2.10;;;;;;;15.79;86.64;100920.69;5255279;28;20079;-73
2022/10/08 11:48:30;;;;;;;6.55;1.98;;;;;;;15.77;86.07;100930.47;5258745;28;20094;-73
2022/10/08 11:51:34;;;;;;;7.45;2.08;;;;;;;16.24;86.27;100928.81;5258184;28;20115;-73
2022/10/08 11:54:11;;;;;;;9.55;1.98;;;;;;;16.21;84.47;100921.06;5223386;28;20461;-73
2022/10/08 11:56:47;;;;;;;6.78;2.22;;;;;;;16.02;84.17;100924.78;5258563;28;20416;-73